Terminal Aerodrome Forecast
Issued by NWS

Home | Current Version | Previous Version | Text Only | Print | Product List | Glossary On
Versions: 1 2 3 4 5 6 7 8 9 10 11 12 13 14 15 16 17 18 19 20 21 22 23
000
FTUS43 KDVN 151700
TAFBRL
TAF
KBRL 151720Z 1518/1618 30009G15KT P6SM SCT050
     FM152100 28006KT P6SM SKC
     FM160800 14013KT P6SM BKN200
     FM161400 18021G31KT P6SM BKN200=

USA.gov is the U.S. government's official web portal to all federal, state and local government web resources and services.